sensor_id;sensor_type;location;lat;lon;timestamp;temperature;humidity
22471;DHT22;11402;51.374;6.594;2023-05-16T00:01:06;10.50;99.90
22471;DHT22;11402;51.374;6.594;2023-05-16T00:03:32;10.60;99.90
22471;DHT22;11402;51.374;6.594;2023-05-16T00:05:58;10.50;99.90
22471;DHT22;11402;51.374;6.594;2023-05-16T00:08:27;10.50;99.90
22471;DHT22;11402;51.374;6.594;2023-05-16T00:10:52;10.30;99.90
22471;DHT22;11402;51.374;6.594;2023-05-16T00:13:18;10.30;99.90
22471;DHT22;11402;51.374;6.594;2023-05-16T00:15:49;10.30;99.90
22471;DHT22;11402;51.374;6.594;2023-05-16T00:18:16;10.10;99.90
22471;DHT22;11402;51.374;6.594;2023-05-16T00:20:43;10.00;99.90
22471;DHT22;11402;51.374;6.594;2023-05-16T00:23:09;10.20;99.90
22471;DHT22;11402;51.374;6.594;2023-05-16T00:25:35;10.30;99.90
22471;DHT22;11402;51.374;6.594;2023-05-16T00:28:01;10.20;99.90
22471;DHT22;11402;51.374;6.594;2023-05-16T00:30:27;10.10;99.90
22471;DHT22;11402;51.374;6.594;2023-05-16T00:32:54;10.00;99.90
22471;DHT22;11402;51.374;6.594;2023-05-16T00:35:20;10.20;99.90
22471;DHT22;11402;51.374;6.594;2023-05-16T00:37:46;10.10;99.90
22471;DHT22;11402;51.374;6.594;2023-05-16T00:40:11;9.90;99.90
22471;DHT22;11402;51.374;6.594;2023-05-16T00:42:38;10.30;99.90
22471;DHT22;11402;51.374;6.594;2023-05-16T00:45:05;10.00;99.90
22471;DHT22;11402;51.374;6.594;2023-05-16T00:47:31;10.00;99.90
22471;DHT22;11402;51.374;6.594;2023-05-16T00:49:57;10.00;99.90
22471;DHT22;11402;51.374;6.594;2023-05-16T00:52:23;10.10;99.90
22471;DHT22;11402;51.374;6.594;2023-05-16T00:54:50;9.90;99.90
22471;DHT22;11402;51.374;6.594;2023-05-16T00:57:16;10.00;99.90
22471;DHT22;11402;51.374;6.594;2023-05-16T00:59:43;9.90;99.90
22471;DHT22;11402;51.374;6.594;2023-05-16T01:02:10;10.00;99.90
22471;DHT22;11402;51.374;6.594;2023-05-16T01:04:38;10.10;99.90
22471;DHT22;11402;51.374;6.594;2023-05-16T01:07:03;10.10;99.90
22471;DHT22;11402;51.374;6.594;2023-05-16T01:09:29;10.10;99.90
22471;DHT22;11402;51.374;6.594;2023-05-16T01:15:12;10.00;99.90
22471;DHT22;11402;51.374;6.594;2023-05-16T01:20:30;9.80;99.90
22471;DHT22;11402;51.374;6.594;2023-05-16T01:25:56;10.00;99.90
22471;DHT22;11402;51.374;6.594;2023-05-16T01:28:23;9.80;99.90
22471;DHT22;11402;51.374;6.594;2023-05-16T01:30:50;9.70;99.90
22471;DHT22;11402;51.374;6.594;2023-05-16T01:33:16;9.80;99.90
22471;DHT22;11402;51.374;6.594;2023-05-16T01:42:04;9.70;99.90
22471;DHT22;11402;51.374;6.594;2023-05-16T01:47:08;9.60;99.90
22471;DHT22;11402;51.374;6.594;2023-05-16T01:49:38;9.50;99.90
22471;DHT22;11402;51.374;6.594;2023-05-16T01:52:12;9.50;99.90
22471;DHT22;11402;51.374;6.594;2023-05-16T01:54:43;10.00;99.90
22471;DHT22;11402;51.374;6.594;2023-05-16T01:57:09;9.70;99.90
22471;DHT22;11402;51.374;6.594;2023-05-16T01:59:37;9.30;99.90
22471;DHT22;11402;51.374;6.594;2023-05-16T02:02:03;9.60;99.90
22471;DHT22;11402;51.374;6.594;2023-05-16T02:04:29;9.50;99.90
22471;DHT22;11402;51.374;6.594;2023-05-16T02:06:55;9.30;99.90
22471;DHT22;11402;51.374;6.594;2023-05-16T02:09:21;9.40;99.90
22471;DHT22;11402;51.374;6.594;2023-05-16T02:11:47;9.70;99.90
22471;DHT22;11402;51.374;6.594;2023-05-16T02:14:12;9.50;99.90
22471;DHT22;11402;51.374;6.594;2023-05-16T02:16:38;9.40;99.90
22471;DHT22;11402;51.374;6.594;2023-05-16T02:19:04;9.50;99.90
22471;DHT22;11402;51.374;6.594;2023-05-16T02:21:29;9.70;99.90
22471;DHT22;11402;51.374;6.594;2023-05-16T02:23:55;9.60;99.90
22471;DHT22;11402;51.374;6.594;2023-05-16T02:26:21;9.60;99.90
22471;DHT22;11402;51.374;6.594;2023-05-16T02:28:46;9.50;99.90
22471;DHT22;11402;51.374;6.594;2023-05-16T02:31:27;9.50;99.90
22471;DHT22;11402;51.374;6.594;2023-05-16T02:33:54;9.50;99.90
22471;DHT22;11402;51.374;6.594;2023-05-16T02:36:19;9.60;99.90
22471;DHT22;11402;51.374;6.594;2023-05-16T02:38:45;9.60;99.90
22471;DHT22;11402;51.374;6.594;2023-05-16T02:41:11;9.60;99.90
22471;DHT22;11402;51.374;6.594;2023-05-16T02:43:36;9.50;99.90
22471;DHT22;11402;51.374;6.594;2023-05-16T02:46:19;9.40;99.90
22471;DHT22;11402;51.374;6.594;2023-05-16T02:48:45;9.30;99.90
22471;DHT22;11402;51.374;6.594;2023-05-16T02:51:11;9.40;99.90
22471;DHT22;11402;51.374;6.594;2023-05-16T02:53:36;9.30;99.90
22471;DHT22;11402;51.374;6.594;2023-05-16T02:56:02;9.20;99.90
22471;DHT22;11402;51.374;6.594;2023-05-16T02:58:31;9.20;99.90
22471;DHT22;11402;51.374;6.594;2023-05-16T03:00:57;9.10;99.90
22471;DHT22;11402;51.374;6.594;2023-05-16T03:03:22;9.10;99.90
22471;DHT22;11402;51.374;6.594;2023-05-16T03:05:48;9.00;99.90
22471;DHT22;11402;51.374;6.594;2023-05-16T03:08:14;8.80;99.90
22471;DHT22;11402;51.374;6.594;2023-05-16T03:10:40;8.80;99.90
22471;DHT22;11402;51.374;6.594;2023-05-16T03:13:05;8.80;99.90
22471;DHT22;11402;51.374;6.594;2023-05-16T03:15:31;8.70;99.90
22471;DHT22;11402;51.374;6.594;2023-05-16T03:17:56;8.70;99.90
22471;DHT22;11402;51.374;6.594;2023-05-16T03:20:22;8.80;99.90
22471;DHT22;11402;51.374;6.594;2023-05-16T03:22:47;8.80;99.90
22471;DHT22;11402;51.374;6.594;2023-05-16T03:25:13;8.90;99.90
22471;DHT22;11402;51.374;6.594;2023-05-16T03:27:39;8.80;99.90
22471;DHT22;11402;51.374;6.594;2023-05-16T03:30:05;8.60;99.90
22471;DHT22;11402;51.374;6.594;2023-05-16T03:32:31;8.50;99.90
22471;DHT22;11402;51.374;6.594;2023-05-16T03:34:57;8.50;99.90
22471;DHT22;11402;51.374;6.594;2023-05-16T03:37:23;8.50;99.90
22471;DHT22;11402;51.374;6.594;2023-05-16T03:39:48;8.60;99.90
22471;DHT22;11402;51.374;6.594;2023-05-16T03:42:14;8.60;99.90
22471;DHT22;11402;51.374;6.594;2023-05-16T03:44:39;8.40;99.90
22471;DHT22;11402;51.374;6.594;2023-05-16T03:47:05;8.50;99.90
22471;DHT22;11402;51.374;6.594;2023-05-16T03:51:57;8.20;99.90
22471;DHT22;11402;51.374;6.594;2023-05-16T03:54:22;8.00;99.90
22471;DHT22;11402;51.374;6.594;2023-05-16T03:56:48;8.00;99.90
22471;DHT22;11402;51.374;6.594;2023-05-16T03:59:14;8.00;99.90
22471;DHT22;11402;51.374;6.594;2023-05-16T04:01:39;8.00;99.90
22471;DHT22;11402;51.374;6.594;2023-05-16T04:04:05;7.60;99.90
22471;DHT22;11402;51.374;6.594;2023-05-16T04:06:31;8.00;99.90
22471;DHT22;11402;51.374;6.594;2023-05-16T04:08:56;8.10;99.90
22471;DHT22;11402;51.374;6.594;2023-05-16T04:11:22;8.40;99.90
22471;DHT22;11402;51.374;6.594;2023-05-16T04:13:48;9.10;99.90
22471;DHT22;11402;51.374;6.594;2023-05-16T04:16:13;8.10;99.90
22471;DHT22;11402;51.374;6.594;2023-05-16T04:18:39;7.90;99.90
22471;DHT22;11402;51.374;6.594;2023-05-16T04:21:05;7.90;99.90
22471;DHT22;11402;51.374;6.594;2023-05-16T04:23:31;8.10;99.90
22471;DHT22;11402;51.374;6.594;2023-05-16T04:25:57;7.90;99.90
22471;DHT22;11402;51.374;6.594;2023-05-16T04:28:23;7.90;99.90
22471;DHT22;11402;51.374;6.594;2023-05-16T04:30:49;7.80;99.90
22471;DHT22;11402;51.374;6.594;2023-05-16T04:33:15;7.90;99.90
22471;DHT22;11402;51.374;6.594;2023-05-16T04:35:41;8.00;99.90
22471;DHT22;11402;51.374;6.594;2023-05-16T04:38:06;8.20;99.90
22471;DHT22;11402;51.374;6.594;2023-05-16T04:40:32;8.10;99.90
22471;DHT22;11402;51.374;6.594;2023-05-16T04:42:58;8.00;99.90
22471;DHT22;11402;51.374;6.594;2023-05-16T04:45:23;8.20;99.90
22471;DHT22;11402;51.374;6.594;2023-05-16T04:47:49;8.10;99.90
22471;DHT22;11402;51.374;6.594;2023-05-16T04:50:15;8.40;99.90
22471;DHT22;11402;51.374;6.594;2023-05-16T04:52:42;8.50;99.90
22471;DHT22;11402;51.374;6.594;2023-05-16T04:57:35;8.40;99.90
22471;DHT22;11402;51.374;6.594;2023-05-16T05:00:01;8.60;99.90
22471;DHT22;11402;51.374;6.594;2023-05-16T05:02:26;8.60;99.90
22471;DHT22;11402;51.374;6.594;2023-05-16T05:04:52;8.60;99.90
22471;DHT22;11402;51.374;6.594;2023-05-16T05:07:17;8.70;99.90
22471;DHT22;11402;51.374;6.594;2023-05-16T05:09:43;8.70;99.90
22471;DHT22;11402;51.374;6.594;2023-05-16T05:12:09;8.70;99.90
22471;DHT22;11402;51.374;6.594;2023-05-16T05:14:35;8.60;99.90
22471;DHT22;11402;51.374;6.594;2023-05-16T05:17:01;8.60;99.90
22471;DHT22;11402;51.374;6.594;2023-05-16T05:19:26;8.80;99.90
22471;DHT22;11402;51.374;6.594;2023-05-16T05:21:52;9.00;99.90
22471;DHT22;11402;51.374;6.594;2023-05-16T05:24:17;8.80;99.90
22471;DHT22;11402;51.374;6.594;2023-05-16T05:26:43;8.90;99.90
22471;DHT22;11402;51.374;6.594;2023-05-16T05:29:09;9.10;99.90
22471;DHT22;11402;51.374;6.594;2023-05-16T05:31:34;9.10;99.90
22471;DHT22;11402;51.374;6.594;2023-05-16T05:34:00;9.10;99.90
22471;DHT22;11402;51.374;6.594;2023-05-16T05:36:25;9.10;99.90
22471;DHT22;11402;51.374;6.594;2023-05-16T05:38:51;9.00;99.90
22471;DHT22;11402;51.374;6.594;2023-05-16T05:41:17;9.10;99.90
22471;DHT22;11402;51.374;6.594;2023-05-16T05:43:42;9.30;99.90
22471;DHT22;11402;51.374;6.594;2023-05-16T05:46:08;9.50;99.90
22471;DHT22;11402;51.374;6.594;2023-05-16T05:48:34;9.70;99.90
22471;DHT22;11402;51.374;6.594;2023-05-16T05:50:59;9.50;99.90
22471;DHT22;11402;51.374;6.594;2023-05-16T05:53:25;9.50;99.90
22471;DHT22;11402;51.374;6.594;2023-05-16T05:55:51;9.60;99.90
22471;DHT22;11402;51.374;6.594;2023-05-16T05:58:16;9.40;99.90
22471;DHT22;11402;51.374;6.594;2023-05-16T06:00:42;9.50;99.90
22471;DHT22;11402;51.374;6.594;2023-05-16T06:03:08;9.60;99.90
22471;DHT22;11402;51.374;6.594;2023-05-16T06:05:33;9.70;99.90
22471;DHT22;11402;51.374;6.594;2023-05-16T06:07:59;9.50;99.90
22471;DHT22;11402;51.374;6.594;2023-05-16T06:10:24;9.60;99.90
22471;DHT22;11402;51.374;6.594;2023-05-16T06:12:50;9.60;99.90
22471;DHT22;11402;51.374;6.594;2023-05-16T06:15:16;9.70;99.90
22471;DHT22;11402;51.374;6.594;2023-05-16T06:17:41;10.00;99.90
22471;DHT22;11402;51.374;6.594;2023-05-16T06:20:07;9.70;99.90
22471;DHT22;11402;51.374;6.594;2023-05-16T06:22:33;9.80;99.90
22471;DHT22;11402;51.374;6.594;2023-05-16T06:24:58;10.00;99.90
22471;DHT22;11402;51.374;6.594;2023-05-16T06:27:24;10.20;99.90
22471;DHT22;11402;51.374;6.594;2023-05-16T06:29:50;10.10;99.90
22471;DHT22;11402;51.374;6.594;2023-05-16T06:32:15;10.00;99.90
22471;DHT22;11402;51.374;6.594;2023-05-16T06:34:41;10.20;99.90
22471;DHT22;11402;51.374;6.594;2023-05-16T06:37:07;10.20;99.90
22471;DHT22;11402;51.374;6.594;2023-05-16T06:39:32;10.20;99.90
22471;DHT22;11402;51.374;6.594;2023-05-16T06:41:58;10.10;99.90
22471;DHT22;11402;51.374;6.594;2023-05-16T06:44:23;10.20;99.90
22471;DHT22;11402;51.374;6.594;2023-05-16T06:46:49;10.20;99.90
22471;DHT22;11402;51.374;6.594;2023-05-16T06:49:14;10.20;99.90
22471;DHT22;11402;51.374;6.594;2023-05-16T06:51:40;10.40;99.90
22471;DHT22;11402;51.374;6.594;2023-05-16T06:54:06;10.60;99.90
22471;DHT22;11402;51.374;6.594;2023-05-16T06:56:31;10.70;71.00
22471;DHT22;11402;51.374;6.594;2023-05-16T06:58:57;10.80;96.30
22471;DHT22;11402;51.374;6.594;2023-05-16T07:01:23;10.90;64.20
22471;DHT22;11402;51.374;6.594;2023-05-16T07:03:48;10.80;35.00
22471;DHT22;11402;51.374;6.594;2023-05-16T07:06:14;10.90;1.00
22471;DHT22;11402;51.374;6.594;2023-05-16T07:08:39;10.70;1.00
22471;DHT22;11402;51.374;6.594;2023-05-16T07:11:05;10.30;9.50
22471;DHT22;11402;51.374;6.594;2023-05-16T07:13:30;10.10;25.60
22471;DHT22;11402;51.374;6.594;2023-05-16T07:15:56;10.30;12.10
22471;DHT22;11402;51.374;6.594;2023-05-16T07:18:22;10.20;1.00
22471;DHT22;11402;51.374;6.594;2023-05-16T07:20:47;10.20;1.00
22471;DHT22;11402;51.374;6.594;2023-05-16T07:23:13;10.30;1.00
22471;DHT22;11402;51.374;6.594;2023-05-16T07:25:38;10.70;1.00
22471;DHT22;11402;51.374;6.594;2023-05-16T07:28:04;10.80;1.00
22471;DHT22;11402;51.374;6.594;2023-05-16T07:30:30;10.90;1.00
22471;DHT22;11402;51.374;6.594;2023-05-16T07:32:55;11.30;1.00
22471;DHT22;11402;51.374;6.594;2023-05-16T07:35:21;11.40;1.00
22471;DHT22;11402;51.374;6.594;2023-05-16T07:37:47;11.50;1.00
22471;DHT22;11402;51.374;6.594;2023-05-16T07:40:12;11.60;1.00
22471;DHT22;11402;51.374;6.594;2023-05-16T07:42:38;11.50;99.90
22471;DHT22;11402;51.374;6.594;2023-05-16T07:45:05;11.60;1.00
22471;DHT22;11402;51.374;6.594;2023-05-16T07:47:31;11.70;1.00
22471;DHT22;11402;51.374;6.594;2023-05-16T07:49:57;11.20;1.00
22471;DHT22;11402;51.374;6.594;2023-05-16T07:52:23;11.30;1.00
22471;DHT22;11402;51.374;6.594;2023-05-16T07:54:48;11.20;1.00
22471;DHT22;11402;51.374;6.594;2023-05-16T07:57:14;11.00;1.00
22471;DHT22;11402;51.374;6.594;2023-05-16T07:59:40;11.10;99.90
22471;DHT22;11402;51.374;6.594;2023-05-16T08:02:06;11.50;99.90
22471;DHT22;11402;51.374;6.594;2023-05-16T08:04:31;11.80;99.90
22471;DHT22;11402;51.374;6.594;2023-05-16T08:06:57;12.20;99.90
22471;DHT22;11402;51.374;6.594;2023-05-16T08:09:23;12.30;99.90
22471;DHT22;11402;51.374;6.594;2023-05-16T08:11:48;12.50;99.90
22471;DHT22;11402;51.374;6.594;2023-05-16T08:14:14;12.70;99.90
22471;DHT22;11402;51.374;6.594;2023-05-16T08:16:39;12.50;48.60
22471;DHT22;11402;51.374;6.594;2023-05-16T08:19:06;12.80;99.90
22471;DHT22;11402;51.374;6.594;2023-05-16T08:21:31;12.70;99.90
22471;DHT22;11402;51.374;6.594;2023-05-16T08:23:57;12.30;99.90
22471;DHT22;11402;51.374;6.594;2023-05-16T08:26:23;12.20;99.90
22471;DHT22;11402;51.374;6.594;2023-05-16T08:28:49;12.60;99.90
22471;DHT22;11402;51.374;6.594;2023-05-16T08:31:22;12.70;99.90
22471;DHT22;11402;51.374;6.594;2023-05-16T08:33:47;12.80;1.00
22471;DHT22;11402;51.374;6.594;2023-05-16T08:36:13;12.60;1.00
22471;DHT22;11402;51.374;6.594;2023-05-16T08:38:40;12.30;1.00
22471;DHT22;11402;51.374;6.594;2023-05-16T08:41:05;12.20;1.00
22471;DHT22;11402;51.374;6.594;2023-05-16T08:43:31;12.10;1.00
22471;DHT22;11402;51.374;6.594;2023-05-16T08:45:59;12.10;86.60
22471;DHT22;11402;51.374;6.594;2023-05-16T08:48:27;12.10;1.00
22471;DHT22;11402;51.374;6.594;2023-05-16T08:50:52;12.30;1.00
22471;DHT22;11402;51.374;6.594;2023-05-16T08:53:21;12.40;99.90
22471;DHT22;11402;51.374;6.594;2023-05-16T08:55:47;12.40;1.00
22471;DHT22;11402;51.374;6.594;2023-05-16T08:58:14;12.60;99.90
22471;DHT22;11402;51.374;6.594;2023-05-16T09:00:40;12.70;1.00
22471;DHT22;11402;51.374;6.594;2023-05-16T09:03:06;12.80;1.00
22471;DHT22;11402;51.374;6.594;2023-05-16T09:05:32;13.00;1.00
22471;DHT22;11402;51.374;6.594;2023-05-16T09:07:58;13.10;99.90
22471;DHT22;11402;51.374;6.594;2023-05-16T09:10:23;13.10;99.90
22471;DHT22;11402;51.374;6.594;2023-05-16T09:12:49;13.20;99.90
22471;DHT22;11402;51.374;6.594;2023-05-16T09:15:17;12.90;1.00
22471;DHT22;11402;51.374;6.594;2023-05-16T09:17:44;13.00;1.00
22471;DHT22;11402;51.374;6.594;2023-05-16T09:20:14;12.70;1.00
22471;DHT22;11402;51.374;6.594;2023-05-16T09:22:52;12.60;53.00
22471;DHT22;11402;51.374;6.594;2023-05-16T09:25:19;12.40;99.90
22471;DHT22;11402;51.374;6.594;2023-05-16T09:27:46;12.20;99.90
22471;DHT22;11402;51.374;6.594;2023-05-16T09:30:14;12.30;99.90
22471;DHT22;11402;51.374;6.594;2023-05-16T09:32:43;12.40;99.90
22471;DHT22;11402;51.374;6.594;2023-05-16T09:35:14;12.40;99.90
22471;DHT22;11402;51.374;6.594;2023-05-16T09:37:47;12.70;99.90
22471;DHT22;11402;51.374;6.594;2023-05-16T09:40:13;12.70;1.00
22471;DHT22;11402;51.374;6.594;2023-05-16T09:42:39;13.10;1.00
22471;DHT22;11402;51.374;6.594;2023-05-16T09:45:05;13.20;99.90
22471;DHT22;11402;51.374;6.594;2023-05-16T09:47:31;13.40;99.90
22471;DHT22;11402;51.374;6.594;2023-05-16T09:49:57;13.70;99.90
22471;DHT22;11402;51.374;6.594;2023-05-16T09:52:26;14.10;1.00
22471;DHT22;11402;51.374;6.594;2023-05-16T09:54:53;14.00;29.50
22471;DHT22;11402;51.374;6.594;2023-05-16T09:57:22;13.80;1.00
22471;DHT22;11402;51.374;6.594;2023-05-16T09:59:51;13.40;99.90
22471;DHT22;11402;51.374;6.594;2023-05-16T10:02:17;13.70;99.90
22471;DHT22;11402;51.374;6.594;2023-05-16T10:04:44;13.80;99.90
22471;DHT22;11402;51.374;6.594;2023-05-16T10:07:10;14.10;63.10
22471;DHT22;11402;51.374;6.594;2023-05-16T10:09:38;14.10;1.00
22471;DHT22;11402;51.374;6.594;2023-05-16T10:12:07;14.30;99.90
22471;DHT22;11402;51.374;6.594;2023-05-16T10:14:35;14.40;1.00
22471;DHT22;11402;51.374;6.594;2023-05-16T10:17:02;13.70;99.90
22471;DHT22;11402;51.374;6.594;2023-05-16T10:19:31;13.60;1.00
22471;DHT22;11402;51.374;6.594;2023-05-16T10:21:58;13.10;2.10
22471;DHT22;11402;51.374;6.594;2023-05-16T10:24:47;12.90;99.90
22471;DHT22;11402;51.374;6.594;2023-05-16T10:27:14;12.70;99.90
22471;DHT22;11402;51.374;6.594;2023-05-16T10:29:41;12.40;99.90
22471;DHT22;11402;51.374;6.594;2023-05-16T10:32:07;12.30;1.00
22471;DHT22;11402;51.374;6.594;2023-05-16T10:34:33;11.90;1.00
22471;DHT22;11402;51.374;6.594;2023-05-16T10:36:59;11.60;1.00
22471;DHT22;11402;51.374;6.594;2023-05-16T10:39:26;11.60;1.00
22471;DHT22;11402;51.374;6.594;2023-05-16T10:41:52;11.60;1.00
22471;DHT22;11402;51.374;6.594;2023-05-16T10:44:18;12.00;1.00
22471;DHT22;11402;51.374;6.594;2023-05-16T10:46:46;12.10;1.00
22471;DHT22;11402;51.374;6.594;2023-05-16T10:49:23;12.20;1.00
22471;DHT22;11402;51.374;6.594;2023-05-16T10:52:09;12.50;1.00
22471;DHT22;11402;51.374;6.594;2023-05-16T10:54:41;12.80;1.00
22471;DHT22;11402;51.374;6.594;2023-05-16T10:57:15;13.00;99.90
22471;DHT22;11402;51.374;6.594;2023-05-16T10:59:46;12.80;1.00
22471;DHT22;11402;51.374;6.594;2023-05-16T11:02:21;13.20;99.90
22471;DHT22;11402;51.374;6.594;2023-05-16T11:04:48;13.30;99.90
22471;DHT22;11402;51.374;6.594;2023-05-16T11:07:17;13.40;99.90
22471;DHT22;11402;51.374;6.594;2023-05-16T11:09:43;13.60;1.00
22471;DHT22;11402;51.374;6.594;2023-05-16T11:12:10;13.50;22.30
22471;DHT22;11402;51.374;6.594;2023-05-16T11:14:37;13.80;99.90
22471;DHT22;11402;51.374;6.594;2023-05-16T11:17:13;13.70;99.90
22471;DHT22;11402;51.374;6.594;2023-05-16T11:24:58;14.30;1.00
22471;DHT22;11402;51.374;6.594;2023-05-16T11:27:31;14.50;99.90
22471;DHT22;11402;51.374;6.594;2023-05-16T11:32:33;13.50;1.00
22471;DHT22;11402;51.374;6.594;2023-05-16T11:34:59;13.50;99.90
22471;DHT22;11402;51.374;6.594;2023-05-16T11:37:26;13.60;99.90
22471;DHT22;11402;51.374;6.594;2023-05-16T11:39:52;13.20;99.90
22471;DHT22;11402;51.374;6.594;2023-05-16T11:42:18;13.10;1.00
22471;DHT22;11402;51.374;6.594;2023-05-16T11:44:44;13.10;71.00
22471;DHT22;11402;51.374;6.594;2023-05-16T11:47:10;12.90;99.90
22471;DHT22;11402;51.374;6.594;2023-05-16T11:49:36;13.00;99.90
22471;DHT22;11402;51.374;6.594;2023-05-16T11:52:03;12.70;99.90
22471;DHT22;11402;51.374;6.594;2023-05-16T11:54:29;12.60;97.40
22471;DHT22;11402;51.374;6.594;2023-05-16T11:56:56;12.90;99.90
22471;DHT22;11402;51.374;6.594;2023-05-16T11:59:21;13.20;99.90
22471;DHT22;11402;51.374;6.594;2023-05-16T12:01:48;13.40;38.00
22471;DHT22;11402;51.374;6.594;2023-05-16T12:04:15;13.60;32.50
22471;DHT22;11402;51.374;6.594;2023-05-16T12:06:42;13.80;29.20
22471;DHT22;11402;51.374;6.594;2023-05-16T12:09:14;14.10;99.90
22471;DHT22;11402;51.374;6.594;2023-05-16T12:11:43;14.20;99.90
22471;DHT22;11402;51.374;6.594;2023-05-16T12:14:12;14.10;1.00
22471;DHT22;11402;51.374;6.594;2023-05-16T12:16:38;14.20;99.90
22471;DHT22;11402;51.374;6.594;2023-05-16T12:19:07;14.30;1.00
22471;DHT22;11402;51.374;6.594;2023-05-16T12:21:33;14.40;1.00
22471;DHT22;11402;51.374;6.594;2023-05-16T12:23:59;14.40;99.90
22471;DHT22;11402;51.374;6.594;2023-05-16T12:26:27;14.50;1.00
22471;DHT22;11402;51.374;6.594;2023-05-16T12:29:04;14.50;99.90
22471;DHT22;11402;51.374;6.594;2023-05-16T12:31:39;14.50;1.00
22471;DHT22;11402;51.374;6.594;2023-05-16T12:34:16;14.60;99.90
22471;DHT22;11402;51.374;6.594;2023-05-16T12:36:42;14.70;1.00
22471;DHT22;11402;51.374;6.594;2023-05-16T12:39:11;14.70;1.00
22471;DHT22;11402;51.374;6.594;2023-05-16T12:41:40;14.70;1.00
22471;DHT22;11402;51.374;6.594;2023-05-16T12:44:14;14.80;86.10
22471;DHT22;11402;51.374;6.594;2023-05-16T12:46:51;14.70;53.60
22471;DHT22;11402;51.374;6.594;2023-05-16T12:49:22;14.60;1.00
22471;DHT22;11402;51.374;6.594;2023-05-16T12:51:53;14.70;99.90
22471;DHT22;11402;51.374;6.594;2023-05-16T12:54:19;14.80;99.90
22471;DHT22;11402;51.374;6.594;2023-05-16T12:56:44;14.80;1.00
22471;DHT22;11402;51.374;6.594;2023-05-16T12:59:10;14.90;99.90
22471;DHT22;11402;51.374;6.594;2023-05-16T13:01:39;15.30;1.00
22471;DHT22;11402;51.374;6.594;2023-05-16T13:04:05;15.40;99.90
22471;DHT22;11402;51.374;6.594;2023-05-16T13:06:31;15.40;1.00
22471;DHT22;11402;51.374;6.594;2023-05-16T13:08:57;15.20;1.00
22471;DHT22;11402;51.374;6.594;2023-05-16T13:11:23;15.00;99.90
22471;DHT22;11402;51.374;6.594;2023-05-16T13:13:50;15.10;99.90
22471;DHT22;11402;51.374;6.594;2023-05-16T13:16:16;14.90;1.00
22471;DHT22;11402;51.374;6.594;2023-05-16T13:18:42;15.20;1.00
22471;DHT22;11402;51.374;6.594;2023-05-16T13:21:07;15.00;1.00
22471;DHT22;11402;51.374;6.594;2023-05-16T13:23:33;15.00;99.90
22471;DHT22;11402;51.374;6.594;2023-05-16T13:25:58;14.90;99.90
22471;DHT22;11402;51.374;6.594;2023-05-16T13:28:24;14.60;1.00
22471;DHT22;11402;51.374;6.594;2023-05-16T13:30:50;14.40;1.00
22471;DHT22;11402;51.374;6.594;2023-05-16T13:33:16;14.40;99.90
22471;DHT22;11402;51.374;6.594;2023-05-16T13:35:42;14.50;1.00
22471;DHT22;11402;51.374;6.594;2023-05-16T13:38:08;14.50;1.00
22471;DHT22;11402;51.374;6.594;2023-05-16T13:40:34;14.80;99.90
22471;DHT22;11402;51.374;6.594;2023-05-16T13:43:00;14.90;99.90
22471;DHT22;11402;51.374;6.594;2023-05-16T13:45:26;15.00;1.00
22471;DHT22;11402;51.374;6.594;2023-05-16T13:47:52;14.90;1.00
22471;DHT22;11402;51.374;6.594;2023-05-16T13:50:18;14.70;1.00
22471;DHT22;11402;51.374;6.594;2023-05-16T13:52:44;14.70;97.20
22471;DHT22;11402;51.374;6.594;2023-05-16T13:55:09;14.80;1.00
22471;DHT22;11402;51.374;6.594;2023-05-16T13:57:35;14.90;99.90
22471;DHT22;11402;51.374;6.594;2023-05-16T14:00:01;14.90;99.90
22471;DHT22;11402;51.374;6.594;2023-05-16T14:02:32;14.90;1.00
22471;DHT22;11402;51.374;6.594;2023-05-16T14:04:58;14.70;99.90
22471;DHT22;11402;51.374;6.594;2023-05-16T14:07:23;14.70;1.00
22471;DHT22;11402;51.374;6.594;2023-05-16T14:09:49;14.80;1.00
22471;DHT22;11402;51.374;6.594;2023-05-16T14:12:14;14.80;1.00
22471;DHT22;11402;51.374;6.594;2023-05-16T14:14:40;14.80;99.00
22471;DHT22;11402;51.374;6.594;2023-05-16T14:17:05;14.50;1.00
22471;DHT22;11402;51.374;6.594;2023-05-16T14:19:31;14.50;1.00
22471;DHT22;11402;51.374;6.594;2023-05-16T14:21:58;14.70;1.00
22471;DHT22;11402;51.374;6.594;2023-05-16T14:24:24;14.70;1.00
22471;DHT22;11402;51.374;6.594;2023-05-16T14:26:49;14.90;99.90
22471;DHT22;11402;51.374;6.594;2023-05-16T14:29:19;14.90;1.00
22471;DHT22;11402;51.374;6.594;2023-05-16T14:31:44;15.00;1.00
22471;DHT22;11402;51.374;6.594;2023-05-16T14:34:11;15.10;28.40
22471;DHT22;11402;51.374;6.594;2023-05-16T14:36:37;15.10;1.00
22471;DHT22;11402;51.374;6.594;2023-05-16T14:39:02;15.30;99.90
22471;DHT22;11402;51.374;6.594;2023-05-16T14:41:28;15.10;99.90
22471;DHT22;11402;51.374;6.594;2023-05-16T14:43:54;15.10;99.90
22471;DHT22;11402;51.374;6.594;2023-05-16T14:46:20;14.90;99.90
22471;DHT22;11402;51.374;6.594;2023-05-16T14:48:46;14.60;1.00
22471;DHT22;11402;51.374;6.594;2023-05-16T14:51:11;14.50;99.90
22471;DHT22;11402;51.374;6.594;2023-05-16T14:53:37;14.30;99.90
22471;DHT22;11402;51.374;6.594;2023-05-16T14:56:02;14.20;99.90
22471;DHT22;11402;51.374;6.594;2023-05-16T14:58:29;14.10;99.90
22471;DHT22;11402;51.374;6.594;2023-05-16T15:00:55;14.00;1.00
22471;DHT22;11402;51.374;6.594;2023-05-16T15:03:21;14.00;99.90
22471;DHT22;11402;51.374;6.594;2023-05-16T15:05:46;14.00;1.00
22471;DHT22;11402;51.374;6.594;2023-05-16T15:08:12;14.00;99.90
22471;DHT22;11402;51.374;6.594;2023-05-16T15:10:37;13.90;66.30
22471;DHT22;11402;51.374;6.594;2023-05-16T15:13:03;14.00;99.90
22471;DHT22;11402;51.374;6.594;2023-05-16T15:15:29;14.00;99.90
22471;DHT22;11402;51.374;6.594;2023-05-16T15:17:54;14.20;99.90
22471;DHT22;11402;51.374;6.594;2023-05-16T15:20:20;14.30;1.00
22471;DHT22;11402;51.374;6.594;2023-05-16T15:22:46;14.40;1.00
22471;DHT22;11402;51.374;6.594;2023-05-16T15:25:13;14.20;93.10
22471;DHT22;11402;51.374;6.594;2023-05-16T15:27:38;14.10;99.90
22471;DHT22;11402;51.374;6.594;2023-05-16T15:30:04;14.30;1.00
22471;DHT22;11402;51.374;6.594;2023-05-16T15:32:30;14.30;99.90
22471;DHT22;11402;51.374;6.594;2023-05-16T15:34:56;14.20;1.00
22471;DHT22;11402;51.374;6.594;2023-05-16T15:37:21;14.20;18.10
22471;DHT22;11402;51.374;6.594;2023-05-16T15:39:47;14.00;1.00
22471;DHT22;11402;51.374;6.594;2023-05-16T15:42:13;14.10;99.90
22471;DHT22;11402;51.374;6.594;2023-05-16T15:44:39;13.80;99.90
22471;DHT22;11402;51.374;6.594;2023-05-16T15:47:05;13.70;1.00
22471;DHT22;11402;51.374;6.594;2023-05-16T15:49:31;13.90;1.00
22471;DHT22;11402;51.374;6.594;2023-05-16T15:51:56;13.70;1.00
22471;DHT22;11402;51.374;6.594;2023-05-16T15:54:22;13.70;47.70
22471;DHT22;11402;51.374;6.594;2023-05-16T15:56:47;13.80;99.90
22471;DHT22;11402;51.374;6.594;2023-05-16T15:59:13;13.80;99.90
22471;DHT22;11402;51.374;6.594;2023-05-16T16:01:38;14.10;99.90
22471;DHT22;11402;51.374;6.594;2023-05-16T16:04:06;13.70;1.00
22471;DHT22;11402;51.374;6.594;2023-05-16T16:06:31;14.00;1.00